Terminal Aerodrome Forecast
Issued by NWS

Home | Current Version | Previous Version | Text Only | Print | Product List | Glossary On
Versions: 1 2 3 4 5 6 7 8 9 10 11 12 13
189
FTUS43 KBIS 302332
TAFMOT
TAF
KMOT 302332Z 0100/0124 15008KT P6SM FEW250
     FM011900 22011KT P6SM BKN045
     FM012000 30011KT P6SM BKN060=

USA.gov is the U.S. government's official web portal to all federal, state and local government web resources and services.